createdAt,value
2019-03-19T00:01:09.074Z,39.30
2019-03-19T00:03:37.285Z,39.31
2019-03-19T00:06:05.483Z,39.33
2019-03-19T00:08:33.688Z,39.32
2019-03-19T00:11:01.893Z,39.31
2019-03-19T00:13:30.397Z,39.29
2019-03-19T00:15:58.850Z,39.27
2019-03-19T00:18:27.055Z,39.29
2019-03-19T00:20:55.508Z,39.31
2019-03-19T00:23:23.731Z,39.26
2019-03-19T00:25:53.212Z,39.22
2019-03-19T00:28:21.523Z,39.21
2019-03-19T00:30:50.044Z,39.24
2019-03-19T00:33:18.647Z,39.29
2019-03-19T00:35:46.847Z,39.31
2019-03-19T00:38:15.062Z,39.21
2019-03-19T00:40:43.255Z,39.27
2019-03-19T00:43:11.449Z,39.27
2019-03-19T00:45:40.012Z,39.26
2019-03-19T00:48:08.210Z,39.21
2019-03-19T00:50:36.422Z,39.20
2019-03-19T00:53:04.619Z,39.22
2019-03-19T00:55:40.741Z,39.20
2019-03-19T00:58:02.762Z,39.19
2019-03-19T01:00:32.594Z,39.16
2019-03-19T01:03:01.113Z,39.17
2019-03-19T01:05:29.315Z,39.14
2019-03-19T01:07:57.870Z,39.19
2019-03-19T01:10:26.072Z,39.11
2019-03-19T01:12:54.628Z,39.14
2019-03-19T01:15:22.881Z,39.12
2019-03-19T01:17:51.485Z,39.13
2019-03-19T01:20:19.687Z,39.14
2019-03-19T01:22:47.890Z,39.15
2019-03-19T01:25:16.094Z,39.14
2019-03-19T01:27:44.300Z,39.11
2019-03-19T01:30:16.274Z,39.14
2019-03-19T01:32:43.909Z,39.17
2019-03-19T01:35:12.072Z,39.19
2019-03-19T01:37:40.271Z,39.12
2019-03-19T01:40:10.785Z,39.09
2019-03-19T01:42:38.979Z,39.10
2019-03-19T01:45:14.487Z,39.09
2019-03-19T01:47:42.694Z,39.07
2019-03-19T01:50:15.109Z,39.08
2019-03-19T01:52:43.314Z,39.05
2019-03-19T01:55:12.561Z,39.06
2019-03-19T01:57:40.774Z,39.07
2019-03-19T02:00:16.931Z,39.03
2019-03-19T02:02:45.126Z,39.00
2019-03-19T02:05:13.344Z,39.07
2019-03-19T02:07:41.826Z,39.01
2019-03-19T02:10:14.029Z,39.00
2019-03-19T02:12:42.575Z,39.04
2019-03-19T02:15:13.143Z,39.06
2019-03-19T02:17:41.331Z,38.99
2019-03-19T02:20:19.306Z,39.00
2019-03-19T02:22:47.513Z,38.99
2019-03-19T02:25:15.717Z,38.98
2019-03-19T02:27:43.920Z,38.97
2019-03-19T02:30:17.879Z,38.95
2019-03-19T02:32:46.140Z,38.94
2019-03-19T02:35:14.574Z,38.94
2019-03-19T02:37:42.805Z,38.96
2019-03-19T02:40:13.610Z,38.92
2019-03-19T02:42:41.823Z,38.91
2019-03-19T02:45:11.578Z,38.93
2019-03-19T02:47:39.793Z,38.92
2019-03-19T02:50:17.847Z,38.93
2019-03-19T02:52:46.048Z,38.97
2019-03-19T02:55:14.279Z,38.94
2019-03-19T02:57:42.447Z,38.91
2019-03-19T03:00:13.019Z,38.93
2019-03-19T03:02:41.288Z,38.87
2019-03-19T03:05:17.849Z,38.93
2019-03-19T03:07:46.062Z,38.88
2019-03-19T03:10:14.828Z,38.91
2019-03-19T03:12:43.022Z,38.87
2019-03-19T03:15:14.899Z,38.86
2019-03-19T03:17:43.081Z,38.90
2019-03-19T03:20:15.342Z,38.90
2019-03-19T03:22:43.545Z,38.87
2019-03-19T03:25:12.901Z,38.87
2019-03-19T03:27:41.160Z,38.90
2019-03-19T03:30:14.535Z,38.92
2019-03-19T03:32:43.025Z,38.86
2019-03-19T03:35:11.709Z,38.89
2019-03-19T03:37:39.904Z,38.88
2019-03-19T03:40:15.620Z,38.88
2019-03-19T03:42:43.829Z,38.85
2019-03-19T03:45:16.029Z,38.89
2019-03-19T03:47:44.240Z,38.88
2019-03-19T03:50:16.019Z,38.87
2019-03-19T03:52:44.201Z,38.87
2019-03-19T03:55:13.446Z,38.86
2019-03-19T03:57:41.958Z,38.82
2019-03-19T04:00:20.674Z,38.82
2019-03-19T04:02:48.863Z,38.82
2019-03-19T04:05:17.087Z,38.85
2019-03-19T04:07:45.284Z,38.76
2019-03-19T04:10:14.902Z,38.83
2019-03-19T04:12:43.101Z,38.83
2019-03-19T04:15:16.087Z,38.81
2019-03-19T04:17:44.644Z,38.77
2019-03-19T04:20:13.872Z,38.79
2019-03-19T04:22:42.447Z,38.76
2019-03-19T04:25:11.032Z,38.78
2019-03-19T04:27:40.702Z,38.78
2019-03-19T04:30:17.730Z,38.71
2019-03-19T04:32:45.929Z,38.75
2019-03-19T04:35:14.134Z,38.73
2019-03-19T04:37:42.337Z,38.76
2019-03-19T04:40:11.674Z,38.76
2019-03-19T04:42:39.875Z,38.79
2019-03-19T04:45:10.346Z,38.77
2019-03-19T04:47:38.551Z,38.73
2019-03-19T04:50:10.303Z,38.72
2019-03-19T04:52:38.513Z,38.72
2019-03-19T04:55:09.097Z,38.73
2019-03-19T04:57:37.383Z,38.69
2019-03-19T05:00:10.638Z,38.69
2019-03-19T05:02:38.841Z,38.69
2019-03-19T05:05:10.251Z,38.74
2019-03-19T05:07:38.473Z,38.73
2019-03-19T05:10:11.946Z,38.72
2019-03-19T05:12:40.146Z,38.76
2019-03-19T05:15:08.784Z,38.72
2019-03-19T05:17:37.266Z,38.73
2019-03-19T05:20:09.331Z,38.76
2019-03-19T05:22:37.813Z,38.73
2019-03-19T05:25:07.048Z,38.74
2019-03-19T05:27:37.746Z,38.73
2019-03-19T05:30:08.733Z,38.73
2019-03-19T05:32:37.261Z,38.74
2019-03-19T05:35:07.599Z,38.71
2019-03-19T05:37:36.065Z,38.69
2019-03-19T05:40:07.092Z,38.69
2019-03-19T05:42:35.297Z,38.72
2019-03-19T05:45:03.872Z,38.72
2019-03-19T05:47:36.992Z,38.74
2019-03-19T05:50:02.261Z,38.75
2019-03-19T05:52:30.455Z,38.77
2019-03-19T05:54:58.650Z,38.79
2019-03-19T05:57:26.858Z,38.74
2019-03-19T05:59:55.087Z,38.80
2019-03-19T06:02:23.634Z,38.85
2019-03-19T06:04:51.837Z,39.02
2019-03-19T06:07:20.034Z,39.20
2019-03-19T06:09:48.242Z,39.33
2019-03-19T06:12:16.441Z,39.43
2019-03-19T06:14:44.641Z,39.49
2019-03-19T06:17:12.864Z,39.59
2019-03-19T06:19:41.058Z,39.55
2019-03-19T06:22:09.548Z,39.73
2019-03-19T06:24:37.751Z,40.08
2019-03-19T06:27:05.968Z,39.67
2019-03-19T06:29:34.483Z,39.88
2019-03-19T06:32:02.704Z,39.93
2019-03-19T06:34:30.894Z,39.93
2019-03-19T06:36:59.116Z,39.91
2019-03-19T06:39:27.330Z,39.94
2019-03-19T06:41:55.540Z,39.87
2019-03-19T06:44:26.421Z,39.91
2019-03-19T06:46:54.644Z,39.86
2019-03-19T06:49:23.146Z,39.90
2019-03-19T06:51:51.456Z,39.90
2019-03-19T06:54:19.665Z,40.08
2019-03-19T06:56:47.885Z,40.54
2019-03-19T06:59:16.093Z,40.27
2019-03-19T07:01:44.300Z,40.98
2019-03-19T07:04:12.514Z,41.66
2019-03-19T07:06:40.721Z,42.31
2019-03-19T07:09:09.241Z,41.49
2019-03-19T07:11:37.448Z,41.86
2019-03-19T07:14:06.001Z,41.29
2019-03-19T07:16:34.208Z,41.45
2019-03-19T07:19:02.462Z,41.30
2019-03-19T07:21:30.656Z,41.26
2019-03-19T07:23:58.941Z,41.26
2019-03-19T07:26:27.481Z,41.16
2019-03-19T07:28:55.693Z,41.11
2019-03-19T07:31:30.742Z,41.11
2019-03-19T07:33:54.156Z,41.05
2019-03-19T07:36:22.397Z,40.99
2019-03-19T07:38:50.607Z,40.96
2019-03-19T07:41:18.809Z,40.94
2019-03-19T07:43:47.022Z,40.95
2019-03-19T07:46:15.532Z,40.94
2019-03-19T07:48:43.746Z,44.83
2019-03-19T07:51:11.945Z,45.05
2019-03-19T07:53:40.207Z,45.85
2019-03-19T07:56:08.736Z,46.35
2019-03-19T07:58:45.168Z,46.41
2019-03-19T08:01:06.885Z,46.53
2019-03-19T08:03:35.097Z,46.74
2019-03-19T08:06:03.588Z,46.65
2019-03-19T08:08:32.067Z,46.61
2019-03-19T08:11:00.277Z,46.69
2019-03-19T08:13:28.484Z,46.79
2019-03-19T08:15:56.691Z,46.80
2019-03-19T08:18:24.911Z,46.83
2019-03-19T08:20:53.445Z,46.82
2019-03-19T08:23:21.661Z,46.84
2019-03-19T08:25:50.204Z,46.90
2019-03-19T08:28:18.421Z,47.06
2019-03-19T08:30:46.629Z,47.04
2019-03-19T08:33:14.837Z,47.12
2019-03-19T08:35:43.047Z,47.12
2019-03-19T08:38:11.584Z,47.13
2019-03-19T08:40:40.062Z,47.15
2019-03-19T08:43:08.282Z,47.10
2019-03-19T08:45:36.919Z,47.21
2019-03-19T08:48:05.406Z,47.02
2019-03-19T08:50:33.612Z,47.16
2019-03-19T08:53:02.164Z,47.12
2019-03-19T08:55:30.371Z,47.07
2019-03-19T08:57:58.918Z,47.27
2019-03-19T09:00:28.805Z,47.25
2019-03-19T09:02:57.308Z,47.14
2019-03-19T09:05:25.518Z,47.26
2019-03-19T09:07:53.716Z,46.98
2019-03-19T09:10:21.924Z,46.93
2019-03-19T09:12:50.416Z,46.83
2019-03-19T09:15:23.808Z,47.23
2019-03-19T09:17:52.289Z,47.32
2019-03-19T09:20:20.873Z,47.80
2019-03-19T09:22:49.076Z,47.66
2019-03-19T09:25:17.633Z,47.86
2019-03-19T09:27:46.078Z,47.63
2019-03-19T09:30:18.480Z,47.67
2019-03-19T09:32:47.171Z,47.25
2019-03-19T09:35:15.394Z,47.21
2019-03-19T09:37:44.903Z,46.83
2019-03-19T09:40:16.451Z,46.67
2019-03-19T09:42:44.985Z,46.83
2019-03-19T09:45:14.340Z,46.54
2019-03-19T09:47:42.550Z,46.60
2019-03-19T09:50:21.791Z,46.75
2019-03-19T09:52:49.992Z,46.76
2019-03-19T09:55:18.443Z,46.94
2019-03-19T09:57:46.649Z,46.80
2019-03-19T10:00:21.556Z,46.80
2019-03-19T10:02:50.132Z,46.77
2019-03-19T10:05:18.439Z,47.06
2019-03-19T10:07:46.723Z,47.01
2019-03-19T10:10:22.986Z,46.83
2019-03-19T10:12:51.407Z,46.81
2019-03-19T10:15:19.623Z,46.78
2019-03-19T10:17:49.467Z,47.10
2019-03-19T10:20:19.047Z,46.74
2019-03-19T10:22:47.319Z,46.62
2019-03-19T10:25:18.748Z,46.38
2019-03-19T10:27:47.235Z,46.32
2019-03-19T10:30:18.758Z,46.22
2019-03-19T10:32:47.025Z,46.25
2019-03-19T10:35:15.300Z,46.25
2019-03-19T10:37:43.500Z,46.14
2019-03-19T10:40:16.825Z,46.17
2019-03-19T10:42:45.031Z,46.33
2019-03-19T10:45:17.345Z,46.12
2019-03-19T10:47:45.831Z,45.94
2019-03-19T10:50:25.380Z,46.37
2019-03-19T10:52:53.848Z,46.36
2019-03-19T10:55:22.056Z,46.34
2019-03-19T10:57:50.259Z,46.29
2019-03-19T11:00:23.662Z,45.89
2019-03-19T11:02:51.862Z,46.08
2019-03-19T11:05:20.807Z,46.14
2019-03-19T11:07:49.441Z,46.21
2019-03-19T11:10:18.383Z,46.30
2019-03-19T11:12:46.579Z,46.09
2019-03-19T11:15:21.736Z,46.10
2019-03-19T11:17:50.231Z,46.40
2019-03-19T11:20:19.278Z,46.34
2019-03-19T11:22:47.475Z,46.25
2019-03-19T11:25:18.982Z,46.11
2019-03-19T11:27:47.195Z,46.17
2019-03-19T11:30:18.655Z,45.97
2019-03-19T11:32:46.864Z,45.92
2019-03-19T11:35:15.328Z,45.82
2019-03-19T11:37:43.524Z,45.53
2019-03-19T11:40:13.881Z,45.58
2019-03-19T11:42:42.078Z,45.60
2019-03-19T11:45:13.857Z,45.37
2019-03-19T11:47:42.059Z,45.19
2019-03-19T11:50:23.973Z,45.49
2019-03-19T11:52:52.507Z,45.59
2019-03-19T11:55:21.091Z,45.59
2019-03-19T11:57:49.296Z,45.54
2019-03-19T12:00:33.697Z,45.63
2019-03-19T12:03:12.322Z,45.76
2019-03-19T12:05:32.429Z,45.72
2019-03-19T12:08:00.905Z,45.53
2019-03-19T12:10:29.117Z,45.74
2019-03-19T12:12:57.314Z,45.84
2019-03-19T12:15:25.759Z,46.07
2019-03-19T12:17:53.957Z,45.99
2019-03-19T12:20:22.486Z,46.00
2019-03-19T12:22:51.042Z,46.01
2019-03-19T12:25:19.186Z,46.08
2019-03-19T12:27:47.730Z,46.08
2019-03-19T12:30:22.620Z,45.98
2019-03-19T12:32:50.217Z,45.98
2019-03-19T12:35:19.305Z,45.68
2019-03-19T12:37:47.507Z,45.74
2019-03-19T12:40:22.829Z,45.30
2019-03-19T12:42:51.027Z,44.99
2019-03-19T12:45:20.278Z,45.11
2019-03-19T12:47:48.477Z,45.29
2019-03-19T12:50:18.435Z,45.32
2019-03-19T12:52:46.972Z,45.46
2019-03-19T12:55:15.450Z,45.49
2019-03-19T12:57:43.657Z,45.41
2019-03-19T13:00:34.341Z,45.43
2019-03-19T13:02:58.301Z,45.47
2019-03-19T13:05:26.779Z,45.39
2019-03-19T13:07:54.983Z,45.39
2019-03-19T13:10:24.278Z,45.01
2019-03-19T13:12:52.474Z,45.22
2019-03-19T13:15:21.023Z,45.12
2019-03-19T13:17:49.222Z,45.38
2019-03-19T13:20:18.385Z,45.49
2019-03-19T13:22:46.645Z,45.47
2019-03-19T13:25:22.632Z,45.49
2019-03-19T13:27:50.816Z,45.49
2019-03-19T13:30:21.617Z,45.56
2019-03-19T13:32:50.122Z,45.60
2019-03-19T13:35:18.327Z,45.60
2019-03-19T13:37:46.535Z,45.48
2019-03-19T13:40:16.608Z,45.16
2019-03-19T13:42:45.161Z,44.86
2019-03-19T13:45:19.434Z,45.16
2019-03-19T13:47:47.954Z,45.16
2019-03-19T13:50:18.157Z,45.02
2019-03-19T13:52:46.357Z,44.86
2019-03-19T13:55:17.700Z,44.82
2019-03-19T13:57:46.193Z,44.92
2019-03-19T14:00:16.489Z,44.84
2019-03-19T14:02:44.694Z,44.83
2019-03-19T14:05:13.851Z,44.18
2019-03-19T14:07:42.054Z,42.13
2019-03-19T14:10:15.150Z,38.29
2019-03-19T14:12:43.352Z,32.74
2019-03-19T14:15:15.218Z,33.33
2019-03-19T14:17:42.784Z,36.13
2019-03-19T14:20:13.716Z,38.65
2019-03-19T14:22:41.929Z,35.43
2019-03-19T14:25:11.267Z,36.64
2019-03-19T14:27:39.482Z,39.70
2019-03-19T14:30:19.467Z,39.54
2019-03-19T14:32:47.689Z,40.95
2019-03-19T14:35:16.225Z,35.68
2019-03-19T14:37:44.710Z,36.40
2019-03-19T14:40:26.644Z,38.17
2019-03-19T14:42:54.855Z,37.38
2019-03-19T14:45:23.058Z,31.27
2019-03-19T14:47:51.258Z,38.40
2019-03-19T14:50:24.626Z,38.53
2019-03-19T14:52:52.832Z,35.78
2019-03-19T14:55:21.100Z,37.40
2019-03-19T14:57:50.955Z,34.90
2019-03-19T15:00:21.563Z,39.25
2019-03-19T15:02:49.779Z,36.86
2019-03-19T15:05:17.987Z,37.73
2019-03-19T15:07:46.277Z,36.16
2019-03-19T15:10:17.744Z,37.29
2019-03-19T15:12:45.926Z,38.56
2019-03-19T15:15:18.045Z,39.46
2019-03-19T15:17:46.611Z,32.93
2019-03-19T15:20:28.557Z,33.05
2019-03-19T15:22:56.777Z,33.63
2019-03-19T15:25:24.980Z,34.07
2019-03-19T15:27:53.467Z,34.21
2019-03-19T15:30:21.939Z,32.82
2019-03-19T15:32:50.522Z,36.03
2019-03-19T15:35:18.706Z,37.22
2019-03-19T15:37:47.255Z,35.48
2019-03-19T15:40:17.726Z,36.54
2019-03-19T15:42:46.406Z,36.86
2019-03-19T15:45:20.648Z,39.00
2019-03-19T15:47:48.868Z,37.92
2019-03-19T15:50:17.145Z,37.59
2019-03-19T15:52:45.722Z,37.42
2019-03-19T15:55:17.036Z,36.12
2019-03-19T15:57:45.551Z,36.94
2019-03-19T16:00:21.500Z,30.47
2019-03-19T16:02:49.706Z,30.55
2019-03-19T16:05:18.268Z,32.40
2019-03-19T16:07:46.508Z,34.01
2019-03-19T16:10:16.800Z,35.94
2019-03-19T16:12:45.016Z,35.45
2019-03-19T16:15:16.896Z,35.39
2019-03-19T16:17:45.114Z,32.76
2019-03-19T16:20:16.112Z,31.60
2019-03-19T16:22:44.337Z,31.70
2019-03-19T16:25:12.896Z,32.88
2019-03-19T16:27:41.108Z,36.15
2019-03-19T16:30:17.508Z,37.79
2019-03-19T16:32:45.723Z,34.54
2019-03-19T16:35:14.376Z,35.76
2019-03-19T16:37:43.871Z,35.63
2019-03-19T16:40:21.866Z,31.41
2019-03-19T16:42:50.085Z,31.51
2019-03-19T16:45:18.750Z,36.18
2019-03-19T16:47:47.076Z,33.77
2019-03-19T16:50:20.075Z,36.64
2019-03-19T16:52:48.698Z,38.84
2019-03-19T16:55:18.415Z,41.62
2019-03-19T16:57:46.875Z,37.63
2019-03-19T17:00:16.931Z,39.04
2019-03-19T17:02:45.136Z,38.49
2019-03-19T17:05:14.309Z,39.53
2019-03-19T17:07:42.559Z,37.33
2019-03-19T17:10:13.996Z,37.53
2019-03-19T17:12:42.208Z,38.79
2019-03-19T17:15:12.816Z,37.67
2019-03-19T17:17:41.027Z,36.76
2019-03-19T17:20:11.829Z,38.23
2019-03-19T17:22:40.037Z,36.77
2019-03-19T17:25:24.382Z,37.26
2019-03-19T17:27:52.866Z,37.00
2019-03-19T17:30:32.274Z,37.52
2019-03-19T17:33:03.699Z,37.33
2019-03-19T17:35:31.899Z,37.52
2019-03-19T17:38:00.106Z,37.06
2019-03-19T17:40:28.626Z,37.21
2019-03-19T17:42:57.107Z,37.19
2019-03-19T17:45:25.416Z,37.00
2019-03-19T17:47:53.969Z,37.69
2019-03-19T17:50:26.778Z,38.09
2019-03-19T17:53:01.107Z,37.84
2019-03-19T17:55:29.573Z,37.63
2019-03-19T17:57:57.783Z,37.40
2019-03-19T18:00:27.623Z,38.93
2019-03-19T18:02:55.962Z,38.54
2019-03-19T18:05:24.214Z,37.06
2019-03-19T18:07:52.776Z,37.29
2019-03-19T18:10:21.092Z,38.74
2019-03-19T18:12:49.632Z,38.21
2019-03-19T18:15:19.234Z,37.57
2019-03-19T18:17:47.439Z,37.82
2019-03-19T18:20:16.194Z,37.50
2019-03-19T18:22:44.678Z,37.96
2019-03-19T18:25:16.483Z,37.81
2019-03-19T18:27:45.025Z,37.42
2019-03-19T18:30:20.365Z,37.00
2019-03-19T18:32:48.569Z,37.80
2019-03-19T18:35:17.121Z,37.31
2019-03-19T18:37:45.322Z,37.78
2019-03-19T18:40:14.582Z,37.36
2019-03-19T18:42:43.075Z,37.53
2019-03-19T18:45:18.417Z,37.96
2019-03-19T18:47:46.622Z,37.95
2019-03-19T18:50:22.377Z,38.48
2019-03-19T18:52:50.837Z,38.93
2019-03-19T18:55:19.955Z,38.92
2019-03-19T18:57:48.149Z,39.10
2019-03-19T19:00:18.475Z,39.42
2019-03-19T19:02:50.235Z,39.61
2019-03-19T19:05:20.475Z,39.04
2019-03-19T19:07:48.690Z,39.56
2019-03-19T19:10:17.633Z,39.25
2019-03-19T19:12:45.844Z,38.84
2019-03-19T19:15:18.719Z,38.79
2019-03-19T19:17:46.976Z,39.33
2019-03-19T19:20:16.017Z,39.06
2019-03-19T19:22:44.571Z,39.13
2019-03-19T19:25:17.177Z,39.00
2019-03-19T19:27:45.740Z,38.96
2019-03-19T19:30:16.745Z,38.88
2019-03-19T19:32:44.962Z,39.20
2019-03-19T19:35:13.167Z,39.05
2019-03-19T19:37:41.395Z,38.87
2019-03-19T19:40:18.420Z,38.88
2019-03-19T19:42:46.960Z,38.75
2019-03-19T19:45:18.658Z,38.67
2019-03-19T19:47:46.878Z,38.73
2019-03-19T19:50:17.732Z,38.68
2019-03-19T19:52:46.308Z,38.69
2019-03-19T19:55:14.895Z,38.70
2019-03-19T19:57:43.691Z,38.57
2019-03-19T20:00:17.589Z,38.52
2019-03-19T20:02:45.865Z,38.52
2019-03-19T20:05:14.071Z,38.51
2019-03-19T20:07:42.622Z,38.49
2019-03-19T20:10:19.601Z,38.36
2019-03-19T20:12:48.080Z,38.42
2019-03-19T20:15:16.291Z,38.44
2019-03-19T20:17:44.556Z,38.36
2019-03-19T20:20:17.878Z,38.33
2019-03-19T20:22:46.083Z,38.28
2019-03-19T20:25:14.576Z,38.40
2019-03-19T20:27:43.264Z,38.30
2019-03-19T20:30:16.243Z,38.27
2019-03-19T20:32:44.743Z,38.40
2019-03-19T20:35:13.058Z,38.25
2019-03-19T20:37:41.269Z,38.29
2019-03-19T20:40:14.477Z,38.40
2019-03-19T20:42:42.682Z,38.38
2019-03-19T20:45:13.485Z,38.41
2019-03-19T20:47:41.688Z,38.48
2019-03-19T20:50:15.773Z,38.42
2019-03-19T20:52:43.984Z,38.46
2019-03-19T20:55:12.234Z,38.55
2019-03-19T20:57:40.409Z,38.43
2019-03-19T21:00:12.149Z,38.57
2019-03-19T21:02:40.364Z,38.55
2019-03-19T21:05:08.581Z,38.52
2019-03-19T21:07:37.089Z,38.45
2019-03-19T21:10:11.114Z,38.50
2019-03-19T21:12:39.393Z,38.43
2019-03-19T21:15:11.136Z,38.35
2019-03-19T21:17:39.348Z,38.49
2019-03-19T21:20:07.644Z,38.67
2019-03-19T21:22:35.849Z,38.63
2019-03-19T21:25:05.192Z,38.45
2019-03-19T21:27:33.737Z,38.46
2019-03-19T21:30:02.326Z,38.44
2019-03-19T21:32:30.683Z,38.39
2019-03-19T21:34:59.178Z,38.38
2019-03-19T21:37:27.784Z,38.30
2019-03-19T21:39:56.052Z,38.31
2019-03-19T21:42:24.295Z,38.25
2019-03-19T21:44:52.583Z,38.26
2019-03-19T21:47:21.170Z,38.26
2019-03-19T21:49:49.353Z,38.16
2019-03-19T21:52:17.934Z,38.15
2019-03-19T21:54:46.424Z,38.09
2019-03-19T21:57:14.634Z,38.09
2019-03-19T21:59:43.746Z,38.04
2019-03-19T22:02:11.989Z,38.06
2019-03-19T22:04:41.215Z,38.01
2019-03-19T22:07:09.587Z,38.03
2019-03-19T22:09:37.807Z,38.05
2019-03-19T22:12:06.061Z,38.07
2019-03-19T22:14:34.312Z,38.10
2019-03-19T22:17:02.860Z,38.18
2019-03-19T22:19:32.680Z,38.15
2019-03-19T22:22:01.233Z,38.13
2019-03-19T22:24:29.445Z,38.09
2019-03-19T22:26:57.683Z,38.04
2019-03-19T22:29:25.903Z,38.02
2019-03-19T22:31:54.132Z,37.99
2019-03-19T22:34:23.162Z,38.00
2019-03-19T22:36:51.378Z,37.94
2019-03-19T22:39:19.590Z,37.94
2019-03-19T22:41:47.921Z,37.90
2019-03-19T22:44:16.155Z,37.87
2019-03-19T22:46:44.379Z,37.88
2019-03-19T22:49:12.585Z,37.87
2019-03-19T22:51:41.160Z,37.83
2019-03-19T22:54:09.379Z,37.79
2019-03-19T22:56:37.945Z,37.79
2019-03-19T22:59:06.244Z,37.79
2019-03-19T23:01:34.474Z,37.73
2019-03-19T23:04:02.683Z,37.72
2019-03-19T23:06:30.927Z,37.69
2019-03-19T23:08:59.149Z,37.70
2019-03-19T23:11:27.682Z,37.71
2019-03-19T23:13:55.893Z,37.65
2019-03-19T23:16:24.109Z,37.72
2019-03-19T23:18:52.317Z,37.71
2019-03-19T23:21:21.079Z,37.68
2019-03-19T23:23:49.571Z,37.62
2019-03-19T23:26:17.776Z,37.60
2019-03-19T23:28:45.977Z,37.56
2019-03-19T23:31:14.495Z,37.60
2019-03-19T23:33:43.185Z,37.45
2019-03-19T23:36:11.665Z,37.56
2019-03-19T23:38:40.200Z,37.57
2019-03-19T23:41:08.398Z,37.51
2019-03-19T23:43:36.904Z,37.54
2019-03-19T23:46:05.107Z,37.49
2019-03-19T23:48:33.663Z,37.41
2019-03-19T23:51:02.349Z,37.42
2019-03-19T23:53:30.819Z,37.43
2019-03-19T23:55:59.022Z,37.42
2019-03-19T23:58:27.239Z,37.43
